Time;durP1;ratioP1;P1;durP2;ratioP2;P2;SDS_P1;SDS_P2;PMS_P1;PMS_P2;Temp;Humidity;BMP_temperature;BMP_pressure;BME280_temperature;BME280_humidity;BME280_pressure;Samples;Min_cycle;Max_cycle;Signal;HPM_P1;HPM_P2
2021/06/02 00:02:09;;;;;;;13.00;6.93;;;;;;;;;;5031436;28;20033;-74
2021/06/02 00:04:40;;;;;;;10.00;6.13;;;;;;;;;;5031134;28;20025;-74
2021/06/02 00:07:09;;;;;;;9.27;6.47;;;;;;;;;;5031467;28;20057;-73
2021/06/02 00:09:36;;;;;;;6.82;5.45;;;;;;;;;;5031381;28;20021;-73
2021/06/02 00:12:04;;;;;;;17.08;6.18;;;;;;;;;;5032717;28;20517;-72
2021/06/02 00:14:30;;;;;;;9.00;6.00;;;;;;;;;;5035010;28;20116;-73
2021/06/02 00:16:58;;;;;;;11.18;5.57;;;;;;;;;;5036348;28;20386;-73
2021/06/02 00:19:24;;;;;;;10.27;6.75;;;;;;;;;;5035077;28;20470;-73
2021/06/02 00:21:51;;;;;;;9.82;5.85;;;;;;;;;;5036228;28;20017;-72
2021/06/02 00:24:17;;;;;;;8.70;6.13;;;;;;;;;;5040663;28;20044;-72
2021/06/02 00:26:44;;;;;;;10.23;5.57;;;;;;;;;;5056111;28;20060;-72
2021/06/02 00:29:12;;;;;;;10.18;5.85;;;;;;;;;;5056062;28;20108;-72
2021/06/02 00:31:44;;;;;;;10.90;6.30;;;;;;;;;;5038050;28;20031;-71
2021/06/02 00:34:11;;;;;;;10.07;5.72;;;;;;;;;;5055971;28;20025;-72
2021/06/02 00:36:40;;;;;;;16.75;6.05;;;;;;;;;;5055962;28;20465;-71
2021/06/02 00:39:07;;;;;;;10.50;6.35;;;;;;;;;;5055885;28;20469;-70
2021/06/02 00:41:35;;;;;;;11.07;5.40;;;;;;;;;;5055900;28;20021;-70
2021/06/02 00:44:02;;;;;;;7.60;6.10;;;;;;;;;;5055817;28;20052;-71
2021/06/02 00:46:28;;;;;;;8.73;5.35;;;;;;;;;;5037873;28;20029;-72
2021/06/02 00:48:54;;;;;;;9.02;6.38;;;;;;;;;;5037830;28;20112;-70
2021/06/02 00:51:20;;;;;;;13.35;6.53;;;;;;;;;;5055688;28;20036;-73
2021/06/02 00:53:47;;;;;;;12.20;6.07;;;;;;;;;;5037668;28;20437;-71
2021/06/02 00:56:14;;;;;;;12.15;6.60;;;;;;;;;;5055247;28;20043;-72
2021/06/02 00:58:47;;;;;;;8.43;5.75;;;;;;;;;;5055495;28;20481;-72
2021/06/02 01:01:14;;;;;;;8.90;5.78;;;;;;;;;;5037579;28;20098;-72
2021/06/02 01:03:40;;;;;;;8.00;5.35;;;;;;;;;;5055478;28;20116;-71
2021/06/02 01:06:07;;;;;;;8.82;5.97;;;;;;;;;;5037192;28;20087;-72
2021/06/02 01:08:35;;;;;;;7.65;6.15;;;;;;;;;;5037131;28;20121;-70
2021/06/02 01:11:02;;;;;;;13.10;5.78;;;;;;;;;;5055298;28;20074;-72
2021/06/02 01:13:29;;;;;;;10.45;6.55;;;;;;;;;;5037341;28;20029;-72
2021/06/02 01:15:56;;;;;;;9.07;5.60;;;;;;;;;;5037144;28;20037;-72
2021/06/02 01:18:22;;;;;;;10.18;6.32;;;;;;;;;;5037371;28;20064;-71
2021/06/02 01:20:49;;;;;;;10.30;6.60;;;;;;;;;;5037161;28;20029;-73
2021/06/02 01:23:16;;;;;;;11.60;7.05;;;;;;;;;;5055020;28;20036;-71
2021/06/02 01:25:43;;;;;;;10.38;6.43;;;;;;;;;;5036451;28;20436;-72
2021/06/02 01:28:09;;;;;;;6.72;5.45;;;;;;;;;;5037035;28;20025;-73
2021/06/02 01:30:36;;;;;;;9.00;6.15;;;;;;;;;;5054927;28;20055;-72
2021/06/02 01:33:24;;;;;;;12.73;5.65;;;;;;;;;;5036962;28;20029;-73
2021/06/02 01:36:04;;;;;;;8.45;5.80;;;;;;;;;;5054763;28;20119;-72
2021/06/02 01:38:49;;;;;;;10.48;6.28;;;;;;;;;;5054774;28;20449;-72
2021/06/02 01:41:19;;;;;;;11.82;6.13;;;;;;;;;;5037051;28;20056;-72
2021/06/02 01:43:51;;;;;;;10.13;5.88;;;;;;;;;;5054708;28;20021;-72
2021/06/02 01:46:30;;;;;;;9.93;6.63;;;;;;;;;;5054643;28;20052;-71
2021/06/02 01:48:56;;;;;;;7.47;5.53;;;;;;;;;;5054374;28;20482;-70
2021/06/02 01:51:30;;;;;;;11.48;6.45;;;;;;;;;;5054830;28;20521;-72
2021/06/02 01:54:15;;;;;;;12.43;6.35;;;;;;;;;;5036673;28;20096;-71
2021/06/02 01:56:56;;;;;;;9.45;6.70;;;;;;;;;;5054376;28;20474;-73
2021/06/02 01:59:41;;;;;;;12.23;6.57;;;;;;;;;;5054391;28;20028;-73
2021/06/02 02:02:22;;;;;;;9.48;6.22;;;;;;;;;;5054021;28;20429;-71
2021/06/02 02:05:08;;;;;;;13.73;6.18;;;;;;;;;;5036404;28;20454;-70
2021/06/02 02:07:53;;;;;;;8.02;5.65;;;;;;;;;;5036372;28;20028;-72
2021/06/02 02:10:22;;;;;;;7.95;5.97;;;;;;;;;;5054426;28;20021;-70
2021/06/02 02:12:57;;;;;;;11.63;6.30;;;;;;;;;;5054121;28;20051;-71
2021/06/02 02:15:34;;;;;;;8.95;6.47;;;;;;;;;;5053672;28;20100;-70
2021/06/02 02:18:10;;;;;;;9.00;6.35;;;;;;;;;;5054072;28;20021;-73
2021/06/02 02:20:48;;;;;;;13.75;6.40;;;;;;;;;;5036160;28;20545;-71
2021/06/02 02:23:15;;;;;;;7.97;6.10;;;;;;;;;;5053922;28;20067;-72
2021/06/02 02:25:48;;;;;;;9.65;7.03;;;;;;;;;;5053771;28;20405;-74
2021/06/02 02:28:17;;;;;;;11.65;6.40;;;;;;;;;;5035940;28;20382;-73
2021/06/02 02:31:02;;;;;;;10.80;5.93;;;;;;;;;;5053505;28;20100;-72
2021/06/02 02:33:44;;;;;;;14.45;6.72;;;;;;;;;;5053737;28;20496;-74
2021/06/02 02:36:16;;;;;;;12.55;6.50;;;;;;;;;;5052866;28;20477;-76
2021/06/02 02:38:48;;;;;;;8.73;6.35;;;;;;;;;;5053739;28;20071;-74
2021/06/02 02:41:22;;;;;;;14.40;7.32;;;;;;;;;;5035732;28;20452;-73
2021/06/02 02:43:48;;;;;;;14.32;6.95;;;;;;;;;;5053633;28;20024;-72
2021/06/02 02:46:23;;;;;;;10.25;5.90;;;;;;;;;;5035560;28;20032;-74
2021/06/02 02:48:55;;;;;;;9.70;5.70;;;;;;;;;;5053530;28;20032;-73
2021/06/02 02:51:52;;;;;;;9.73;6.00;;;;;;;;;;5053486;28;20035;-74
2021/06/02 02:54:36;;;;;;;11.40;5.88;;;;;;;;;;4965886;28;20031;-71
2021/06/02 02:57:07;;;;;;;8.60;5.78;;;;;;;;;;5035343;28;20553;-72
2021/06/02 02:59:36;;;;;;;13.10;6.18;;;;;;;;;;5053389;28;20062;-72
2021/06/02 03:02:12;;;;;;;9.10;6.30;;;;;;;;;;5053280;28;20028;-72
2021/06/02 03:04:43;;;;;;;9.65;6.15;;;;;;;;;;5053328;28;20020;-70
2021/06/02 03:07:10;;;;;;;9.27;6.82;;;;;;;;;;5052971;28;20029;-71
2021/06/02 03:09:46;;;;;;;11.30;6.05;;;;;;;;;;5035225;28;20027;-70
2021/06/02 03:12:18;;;;;;;8.75;6.43;;;;;;;;;;5053185;28;20021;-70
2021/06/02 03:15:00;;;;;;;12.38;6.45;;;;;;;;;;5052781;28;20025;-70
2021/06/02 03:17:46;;;;;;;8.38;6.53;;;;;;;;;;5053127;28;20033;-70
2021/06/02 03:20:18;;;;;;;9.00;6.45;;;;;;;;;;5053005;28;20365;-70
2021/06/02 03:23:03;;;;;;;10.73;6.63;;;;;;;;;;5035087;28;20021;-70
2021/06/02 03:25:36;;;;;;;10.75;6.60;;;;;;;;;;5052518;28;20049;-70
2021/06/02 03:28:09;;;;;;;12.20;6.60;;;;;;;;;;5035184;28;20025;-70
2021/06/02 03:30:37;;;;;;;9.02;5.70;;;;;;;;;;5052915;28;20088;-71
2021/06/02 03:33:24;;;;;;;10.63;6.93;;;;;;;;;;5052559;28;20452;-69
2021/06/02 03:36:09;;;;;;;9.40;6.55;;;;;;;;;;4995227;28;20045;-70
2021/06/02 03:38:53;;;;;;;16.58;6.75;;;;;;;;;;5035004;28;20028;-70
2021/06/02 03:41:41;;;;;;;11.75;6.82;;;;;;;;;;5053067;28;20103;-70
2021/06/02 03:44:15;;;;;;;13.32;6.63;;;;;;;;;;5034964;28;20461;-70
2021/06/02 03:46:51;;;;;;;12.20;6.28;;;;;;;;;;5034889;28;20128;-70
2021/06/02 03:49:23;;;;;;;11.25;7.15;;;;;;;;;;5056351;28;20052;-73
2021/06/02 03:51:49;;;;;;;19.17;6.32;;;;;;;;;;5038957;28;20029;-72
2021/06/02 03:54:22;;;;;;;10.82;7.05;;;;;;;;;;5038784;28;20025;-72
2021/06/02 03:57:09;;;;;;;15.50;7.72;;;;;;;;;;5056673;28;20452;-70
2021/06/02 03:59:39;;;;;;;13.05;6.25;;;;;;;;;;5025175;28;20033;-72
2021/06/02 04:02:40;;;;;;;12.10;6.32;;;;;;;;;;5056606;28;20017;-73
2021/06/02 04:05:16;;;;;;;11.10;6.15;;;;;;;;;;4956110;29;20038;-72
2021/06/02 04:07:45;;;;;;;14.00;5.47;;;;;;;;;;4955990;29;20042;-71
2021/06/02 04:10:19;;;;;;;12.05;6.38;;;;;;;;;;4956110;29;20034;-72
2021/06/02 04:13:04;;;;;;;11.27;5.43;;;;;;;;;;4955951;29;20087;-71
2021/06/02 04:15:30;;;;;;;13.75;6.68;;;;;;;;;;4955630;29;20130;-71
2021/06/02 04:17:57;;;;;;;10.27;6.35;;;;;;;;;;4955908;29;20047;-68
2021/06/02 04:20:24;;;;;;;11.63;6.30;;;;;;;;;;4955719;29;20043;-70
2021/06/02 04:22:50;;;;;;;9.25;5.75;;;;;;;;;;4955583;29;20039;-70
2021/06/02 04:25:18;;;;;;;13.52;6.13;;;;;;;;;;4955490;29;20052;-69
2021/06/02 04:27:47;;;;;;;11.57;6.20;;;;;;;;;;4955562;29;20031;-70
2021/06/02 04:30:16;;;;;;;12.93;6.03;;;;;;;;;;4955532;28;20023;-69
2021/06/02 04:32:47;;;;;;;12.85;6.07;;;;;;;;;;4955534;29;20124;-68
2021/06/02 04:35:14;;;;;;;;;;;;;;;;;;4955945;29;20027;-72
2021/06/02 04:37:40;;;;;;;10.35;6.03;;;;;;;;;;4955248;29;19981;-70
2021/06/02 04:40:08;;;;;;;9.57;6.40;;;;;;;;;;5048655;28;20041;-69
2021/06/02 04:42:35;;;;;;;16.00;6.13;;;;;;;;;;5055558;28;20393;-72
2021/06/02 04:45:02;;;;;;;13.55;6.68;;;;;;;;;;5055730;28;20029;-69
2021/06/02 04:47:29;;;;;;;7.32;5.70;;;;;;;;;;5037809;28;20025;-71
2021/06/02 04:49:55;;;;;;;9.65;5.55;;;;;;;;;;5056045;28;20553;-72
2021/06/02 04:52:34;;;;;;;9.38;5.38;;;;;;;;;;5037683;28;20461;-70
2021/06/02 04:55:03;;;;;;;7.32;5.32;;;;;;;;;;5037646;28;20127;-72
2021/06/02 04:57:29;;;;;;;12.57;6.00;;;;;;;;;;5037652;28;20060;-73
2021/06/02 05:00:14;;;;;;;12.73;5.05;;;;;;;;;;5036870;28;20183;-71
2021/06/02 05:03:04;;;;;;;7.78;5.10;;;;;;;;;;5055408;28;20100;-72
2021/06/02 05:05:42;;;;;;;13.25;5.05;;;;;;;;;;5055452;28;20032;-71
2021/06/02 05:08:11;;;;;;;9.77;5.05;;;;;;;;;;5055106;28;20362;-72
2021/06/02 05:10:41;;;;;;;8.48;4.93;;;;;;;;;;5055306;28;20033;-73
2021/06/02 05:13:26;;;;;;;12.73;4.85;;;;;;;;;;5055276;28;20029;-72
2021/06/02 05:15:55;;;;;;;5.40;4.50;;;;;;;;;;5055037;28;20036;-75
2021/06/02 05:18:40;;;;;;;6.15;4.93;;;;;;;;;;5055371;28;20096;-75
2021/06/02 05:24:30;;;;;;;5.28;3.88;;;;;;;;;;5054820;28;20079;-74
2021/06/02 05:27:15;;;;;;;10.18;4.75;;;;;;;;;;5054943;28;20032;-73
2021/06/02 05:29:47;;;;;;;10.25;4.32;;;;;;;;;;5054879;28;20475;-73
2021/06/02 05:32:44;;;;;;;7.28;4.43;;;;;;;;;;5054825;28;20056;-74
2021/06/02 05:35:29;;;;;;;11.57;4.75;;;;;;;;;;5036910;28;20355;-74
2021/06/02 05:38:14;;;;;;;11.35;5.00;;;;;;;;;;5053981;28;20533;-72
2021/06/02 05:40:59;;;;;;;8.43;5.38;;;;;;;;;;5036851;28;20436;-71
2021/06/02 05:43:32;;;;;;;11.77;5.70;;;;;;;;;;5036721;28;20025;-71
2021/06/02 05:46:07;;;;;;;10.65;6.30;;;;;;;;;;5054515;28;20056;-72
2021/06/02 05:48:39;;;;;;;10.13;5.85;;;;;;;;;;5036656;28;20079;-73
2021/06/02 05:51:09;;;;;;;11.48;5.28;;;;;;;;;;5054577;28;20414;-72
2021/06/02 05:53:50;;;;;;;9.85;5.35;;;;;;;;;;5036476;28;20017;-73
2021/06/02 05:56:35;;;;;;;9.70;5.28;;;;;;;;;;5055778;28;20074;-73
2021/06/02 05:59:21;;;;;;;8.45;4.82;;;;;;;;;;5036493;28;20171;-71
2021/06/02 06:01:47;;;;;;;10.20;5.32;;;;;;;;;;5054243;28;20104;-71
2021/06/02 06:04:32;;;;;;;8.25;4.68;;;;;;;;;;5035967;28;20067;-72
2021/06/02 06:07:06;;;;;;;8.38;5.43;;;;;;;;;;5034405;28;20025;-71
2021/06/02 06:09:35;;;;;;;8.50;5.38;;;;;;;;;;5034681;28;20108;-72
2021/06/02 06:12:22;;;;;;;11.00;5.07;;;;;;;;;;5034065;28;20040;-73
2021/06/02 06:15:04;;;;;;;8.55;5.22;;;;;;;;;;5034404;28;20048;-72
2021/06/02 06:17:49;;;;;;;12.43;4.97;;;;;;;;;;5052019;28;20056;-71
2021/06/02 06:20:34;;;;;;;8.43;5.30;;;;;;;;;;5052400;28;20029;-72
2021/06/02 06:23:03;;;;;;;13.55;5.57;;;;;;;;;;5034053;28;20123;-73
2021/06/02 06:25:37;;;;;;;10.10;5.53;;;;;;;;;;5051553;28;20477;-72
2021/06/02 06:28:10;;;;;;;8.38;5.05;;;;;;;;;;5034616;28;20163;-73
2021/06/02 06:30:39;;;;;;;11.52;5.72;;;;;;;;;;5053691;28;20119;-71
2021/06/02 06:33:10;;;;;;;5.88;4.50;;;;;;;;;;5053387;28;20625;-71
2021/06/02 06:35:40;;;;;;;6.50;4.55;;;;;;;;;;5034632;28;20377;-72
2021/06/02 06:38:09;;;;;;;15.82;4.38;;;;;;;;;;5052663;28;20552;-70
2021/06/02 06:40:36;;;;;;;5.43;4.30;;;;;;;;;;5053166;28;20053;-71
2021/06/02 06:43:05;;;;;;;10.27;5.07;;;;;;;;;;5052847;28;20021;-72
2021/06/02 06:45:34;;;;;;;9.50;4.80;;;;;;;;;;5053450;28;20036;-72
2021/06/02 06:48:04;;;;;;;5.55;4.07;;;;;;;;;;5052720;28;20025;-73
2021/06/02 06:50:31;;;;;;;6.90;4.72;;;;;;;;;;5052906;28;20028;-73
2021/06/02 06:53:31;;;;;;;14.23;4.68;;;;;;;;;;5035099;28;20434;-73
2021/06/02 06:56:00;;;;;;;11.20;4.05;;;;;;;;;;5034725;28;20032;-72
2021/06/02 06:58:26;;;;;;;8.98;4.43;;;17.10;99.90;;;;;;5034919;28;20056;-73
2021/06/02 07:00:54;;;;;;;10.02;4.40;;;17.20;99.90;;;;;;5034579;28;20044;-73
2021/06/02 07:03:20;;;;;;;10.05;3.90;;;17.20;99.90;;;;;;5034122;28;20454;-72
2021/06/02 07:05:47;;;;;;;8.98;4.03;;;17.40;99.90;;;;;;5033965;28;20028;-72
2021/06/02 07:08:13;;;;;;;7.25;3.88;;;17.50;99.90;;;;;;5053025;28;20064;-73
2021/06/02 07:10:40;;;;;;;7.07;3.92;;;17.60;99.90;;;;;;5053024;28;20109;-72
2021/06/02 07:13:07;;;;;;;10.88;3.65;;;17.80;99.90;;;;;;5052375;28;20025;-72
2021/06/02 07:15:33;;;;;;;5.30;2.90;;;17.90;99.90;;;;;;5052337;28;20037;-73
2021/06/02 07:18:01;;;;;;;4.18;3.35;;;18.00;99.20;;;;;;5034236;28;20115;-71
2021/06/02 07:20:30;;;;;;;5.35;3.58;;;18.20;98.00;;;;;;5033306;28;20036;-72
2021/06/02 07:22:57;;;;;;;8.52;4.03;;;18.30;98.00;;;;;;5033591;28;20153;-73
2021/06/02 07:25:28;;;;;;;5.18;3.63;;;18.50;99.90;;;;;;5050241;28;20037;-73
2021/06/02 07:27:56;;;;;;;6.53;3.05;;;18.60;99.30;;;;;;5051950;28;20195;-73
2021/06/02 07:30:25;;;;;;;5.95;3.20;;;18.80;97.90;;;;;;5033719;28;20076;-73
2021/06/02 07:32:52;;;;;;;5.65;2.83;;;18.90;98.30;;;;;;5052242;28;20116;-73
2021/06/02 07:35:18;;;;;;;3.00;2.70;;;18.90;96.40;;;;;;5034071;28;20500;-72
2021/06/02 07:37:44;;;;;;;8.95;3.25;;;19.00;95.60;;;;;;5033806;28;20331;-71
2021/06/02 07:40:10;;;;;;;4.28;3.10;;;19.10;95.70;;;;;;5052619;28;20063;-71
2021/06/02 07:42:36;;;;;;;6.03;3.60;;;19.10;95.80;;;;;;5034806;28;20147;-70
2021/06/02 07:45:04;;;;;;;4.45;2.95;;;19.30;97.00;;;;;;5034916;28;20036;-73
2021/06/02 07:47:30;;;;;;;4.95;3.05;;;19.30;96.10;;;;;;5034482;28;20029;-72
2021/06/02 07:49:57;;;;;;;4.85;2.47;;;19.40;95.90;;;;;;5053758;28;20484;-72
2021/06/02 07:52:26;;;;;;;5.65;2.90;;;19.60;95.30;;;;;;5035639;28;20029;-72
2021/06/02 07:54:52;;;;;;;10.77;2.92;;;19.60;94.40;;;;;;5034593;28;20098;-73
2021/06/02 07:57:18;;;;;;;4.30;2.67;;;19.80;95.50;;;;;;5052164;28;20045;-73
2021/06/02 07:59:44;;;;;;;2.92;2.25;;;19.90;93.70;;;;;;5033849;28;20037;-73
2021/06/02 08:02:10;;;;;;;3.55;2.65;;;20.00;93.80;;;;;;5033606;28;20029;-72
2021/06/02 08:04:36;;;;;;;3.38;3.00;;;20.10;93.50;;;;;;5052070;28;20051;-71
2021/06/02 08:07:03;;;;;;;2.45;1.90;;;20.30;93.40;;;;;;5051697;28;20121;-75
2021/06/02 08:09:29;;;;;;;6.47;2.30;;;20.40;88.60;;;;;;5051665;28;20087;-72
2021/06/02 08:11:55;;;;;;;2.22;1.70;;;20.30;88.00;;;;;;5033563;28;20021;-72
2021/06/02 08:14:21;;;;;;;4.72;2.67;;;20.40;89.30;;;;;;5051340;28;20021;-71
2021/06/02 08:16:47;;;;;;;4.40;2.50;;;20.60;90.10;;;;;;5051184;28;20120;-72
2021/06/02 08:19:13;;;;;;;7.85;1.98;;;20.70;87.90;;;;;;5034354;28;20504;-72
2021/06/02 08:21:39;;;;;;;2.70;2.10;;;20.80;87.10;;;;;;5034397;28;20056;-71
2021/06/02 08:24:06;;;;;;;3.60;2.00;;;21.00;87.20;;;;;;5051208;28;20060;-71
2021/06/02 08:26:39;;;;;;;2.63;2.42;;;21.10;85.60;;;;;;5050924;28;20036;-73
2021/06/02 08:29:06;;;;;;;3.72;2.90;;;21.20;83.80;;;;;;5051316;28;20025;-72
2021/06/02 08:31:33;;;;;;;6.35;2.40;;;21.30;84.60;;;;;;5051179;28;20043;-71
2021/06/02 08:34:00;;;;;;;3.15;2.05;;;21.40;82.20;;;;;;5051308;28;20033;-69
2021/06/02 08:36:26;;;;;;;6.95;2.63;;;21.50;79.30;;;;;;5036931;28;20033;-69
2021/06/02 08:38:52;;;;;;;2.92;2.17;;;21.50;81.60;;;;;;5055651;28;20641;-72
2021/06/02 08:41:22;;;;;;;53.13;6.00;;;21.50;84.40;;;;;;5054443;28;20048;-72
2021/06/02 08:43:49;;;;;;;5.07;2.25;;;21.60;83.00;;;;;;5055533;28;20040;-75
2021/06/02 08:46:16;;;;;;;10.10;2.30;;;21.60;80.30;;;;;;5054084;28;20025;-71
2021/06/02 08:48:45;;;;;;;5.75;2.40;;;21.90;78.90;;;;;;5054393;28;20363;-71
2021/06/02 08:51:11;;;;;;;21.15;3.58;;;22.10;83.50;;;;;;5054515;28;20026;-72
2021/06/02 08:53:37;;;;;;;2.28;1.80;;;22.10;81.90;;;;;;5055114;28;20025;-72
2021/06/02 08:56:04;;;;;;;3.95;1.95;;;22.20;79.50;;;;;;5054536;28;20495;-71
2021/06/02 08:58:30;;;;;;;8.60;1.90;;;22.30;73.20;;;;;;5055210;28;20420;-72
2021/06/02 09:00:56;;;;;;;3.90;1.80;;;22.40;74.00;;;;;;5037376;28;20520;-72
2021/06/02 09:03:22;;;;;;;2.85;2.15;;;22.60;75.30;;;;;;5054162;28;20028;-71
2021/06/02 09:05:48;;;;;;;6.93;2.10;;;23.00;72.50;;;;;;5055325;28;20037;-71
2021/06/02 09:08:18;;;;;;;1.90;1.80;;;23.10;77.60;;;;;;5055305;28;20108;-72
2021/06/02 09:10:45;;;;;;;4.13;1.80;;;23.10;73.20;;;;;;5055325;28;20478;-71
2021/06/02 09:14:01;;;;;;;1.77;1.63;;;23.40;70.80;;;;;;5055196;28;20067;-71
2021/06/02 09:16:29;;;;;;;4.25;1.90;;;23.00;69.50;;;;;;5055115;28;20040;-70
2021/06/02 09:19:05;;;;;;;4.30;1.73;;;23.20;67.30;;;;;;5055118;28;20458;-70
2021/06/02 09:21:34;;;;;;;1.58;1.48;;;23.10;61.80;;;;;;5037136;28;20029;-71
2021/06/02 09:24:00;;;;;;;1.40;1.30;;;23.30;63.10;;;;;;5036623;28;20144;-70
2021/06/02 09:26:28;;;;;;;2.70;1.75;;;23.80;61.30;;;;;;5037113;28;20040;-72
2021/06/02 09:29:11;;;;;;;3.65;1.75;;;24.00;63.80;;;;;;5054912;28;20056;-71
2021/06/02 09:31:44;;;;;;;7.22;2.08;;;24.00;65.20;;;;;;5054965;28;20052;-70
2021/06/02 09:34:13;;;;;;;2.78;1.52;;;24.00;58.60;;;;;;5054668;28;20508;-70
2021/06/02 09:36:40;;;;;;;3.58;1.65;;;24.20;59.00;;;;;;5054689;28;20083;-72
2021/06/02 09:39:09;;;;;;;2.35;1.75;;;23.60;59.40;;;;;;5054709;28;20037;-72
2021/06/02 09:41:41;;;;;;;3.05;1.90;;;23.00;56.90;;;;;;5036738;28;20474;-72
2021/06/02 09:44:27;;;;;;;2.70;2.00;;;22.60;57.40;;;;;;5036498;28;20032;-72
2021/06/02 09:47:07;;;;;;;2.53;1.70;;;22.70;58.90;;;;;;5036275;28;20368;-73
2021/06/02 09:49:59;;;;;;;1.58;1.40;;;23.20;60.30;;;;;;5054503;28;20025;-72
2021/06/02 09:52:49;;;;;;;1.88;1.65;;;23.20;58.60;;;;;;5036571;28;20021;-70
2021/06/02 09:55:18;;;;;;;1.92;1.70;;;23.40;59.60;;;;;;5036427;28;20025;-70
2021/06/02 09:57:45;;;;;;;4.18;1.48;;;;;;;;;;5036250;28;20143;-72
2021/06/02 10:00:12;;;;;;;3.75;1.70;;;24.60;58.80;;;;;;5054285;28;20032;-73
2021/06/02 10:02:38;;;;;;;3.63;1.63;;;25.20;59.50;;;;;;5054315;28;20025;-71
2021/06/02 10:05:08;;;;;;;2.25;1.88;;;25.20;57.30;;;;;;5054472;28;20036;-71
2021/06/02 10:07:43;;;;;;;5.45;1.50;;;25.00;56.00;;;;;;5036386;28;20028;-74
2021/06/02 10:10:20;;;;;;;2.47;1.60;;;25.90;57.10;;;;;;5054224;28;20103;-71
2021/06/02 10:13:09;;;;;;;1.77;1.60;;;25.40;56.30;;;;;;5054060;28;20028;-74
2021/06/02 10:15:42;;;;;;;1.45;1.33;;;24.80;54.20;;;;;;5054020;28;20369;-71
2021/06/02 10:18:30;;;;;;;2.47;1.73;;;24.70;55.40;;;;;;5054048;28;20082;-72
2021/06/02 10:21:10;;;;;;;2.70;1.50;;;24.40;57.80;;;;;;5054045;28;20029;-72
2021/06/02 10:23:39;;;;;;;3.60;1.80;;;24.30;57.50;;;;;;5053777;28;20017;-72
2021/06/02 10:26:06;;;;;;;2.22;1.70;;;;;;;;;;5053918;28;20068;-71
2021/06/02 10:28:33;;;;;;;2.08;1.70;;;;;;;;;;5053380;28;20032;-71
2021/06/02 10:31:01;;;;;;;3.08;1.50;;;25.00;56.30;;;;;;5053849;28;20032;-71
2021/06/02 10:33:28;;;;;;;1.98;1.88;;;24.70;55.30;;;;;;5035647;28;20025;-71
2021/06/02 10:35:56;;;;;;;1.50;1.38;;;25.70;55.90;;;;;;5053470;28;20037;-72
2021/06/02 10:38:24;;;;;;;2.00;1.52;;;27.40;52.80;;;;;;5053449;28;20037;-71
2021/06/02 10:40:51;;;;;;;1.40;1.30;;;27.50;53.70;;;;;;5053806;28;20028;-71
2021/06/02 10:43:29;;;;;;;3.92;1.63;;;27.60;52.50;;;;;;5053310;28;20488;-70
2021/06/02 10:46:06;;;;;;;1.75;1.40;;;;;;;;;;5053105;28;20036;-71
2021/06/02 10:48:43;;;;;;;2.60;1.70;;;;;;;;;;5053348;28;20025;-70
2021/06/02 10:51:10;;;;;;;3.17;1.65;;;;;;;;;;5053450;28;20024;-72
2021/06/02 10:53:36;;;;;;;2.65;1.52;;;;;;;;;;5053322;28;20025;-72
2021/06/02 10:56:02;;;;;;;3.17;1.77;;;;;;;;;;5053241;28;20033;-74
2021/06/02 10:58:33;;;;;;;2.42;1.30;;;;;;;;;;5052582;28;20013;-72
2021/06/02 11:01:05;;;;;;;3.30;1.33;;;;;;;;;;5053286;28;20055;-71
2021/06/02 11:03:32;;;;;;;2.58;1.40;;;;;;;;;;5052797;28;20106;-70
2021/06/02 11:06:16;;;;;;;1.73;1.05;;;;;;;;;;5035155;28;20071;-70
2021/06/02 11:08:48;;;;;;;3.65;1.45;;;;;;;;;;5035070;28;20102;-73
2021/06/02 11:11:35;;;;;;;1.48;1.23;;;;;;;;;;5034964;28;20049;-72
2021/06/02 11:14:17;;;;;;;2.22;1.25;;;;;;;;;;5051813;28;20473;-72
2021/06/02 11:16:50;;;;;;;1.65;1.30;;;;;;;;;;5051706;28;20029;-73
2021/06/02 11:19:24;;;;;;;2.10;1.25;;;;;;;;;;5053047;28;20469;-72
2021/06/02 11:21:56;;;;;;;3.45;1.67;;;;;;;;;;5053023;28;20035;-72
2021/06/02 11:24:35;;;;;;;2.53;1.45;;;;;;;;;;5032417;28;20048;-71
2021/06/02 11:27:13;;;;;;;1.33;1.17;;;;;;;;;;5034961;28;20147;-72
2021/06/02 11:29:50;;;;;;;1.95;1.45;;;;;;;;;;5052518;28;20045;-72
2021/06/02 11:32:22;;;;;;;2.10;1.20;;;;;;;;;;5052899;28;20021;-71
2021/06/02 11:37:54;;;;;;;1.70;1.48;;;;;;;;;;4971466;28;20054;-74
2021/06/02 11:40:20;;;;;;;3.53;1.35;;;;;;;;;;4971536;28;20039;-74
2021/06/02 11:42:48;;;;;;;2.70;1.40;;;;;;;;;;4971978;28;20039;-72
2021/06/02 11:45:14;;;;;;;2.97;1.10;;;;;;;;;;4971637;28;20121;-75
2021/06/02 11:47:52;;;;;;;1.30;1.20;;;;;;;;;;4971787;28;20372;-73
2021/06/02 11:50:22;;;;;;;1.88;1.45;;;;;;;;;;4971476;28;20049;-71
2021/06/02 11:52:55;;;;;;;2.78;1.55;;;;;;;;;;4971423;28;20023;-71
2021/06/02 11:55:22;;;;;;;1.92;1.20;;;;;;;;;;4971426;28;20038;-71
2021/06/02 11:57:51;;;;;;;3.88;1.13;;;;;;;;;;4971513;28;20423;-71
2021/06/02 12:00:18;;;;;;;1.67;1.40;;;;;;;;;;4971319;28;20028;-72
2021/06/02 12:02:45;;;;;;;2.38;1.38;;;;;;;;;;4971070;28;20133;-71
2021/06/02 12:05:19;;;;;;;2.60;1.20;;;;;;;;;;4970647;28;20034;-72
2021/06/02 12:07:46;;;;;;;2.13;1.30;;;;;;;;;;4970941;28;20130;-71
2021/06/02 12:10:13;;;;;;;3.00;1.33;;;;;;;;;;4974619;28;20026;-71
2021/06/02 12:12:40;;;;;;;1.77;1.67;;;;;;;;;;4975215;28;20034;-71
2021/06/02 12:15:06;;;;;;;2.10;1.33;;;;;;;;;;5030662;28;20055;-72
2021/06/02 12:17:33;;;;;;;1.25;1.23;;;;;;;;;;5056201;28;20496;-71
2021/06/02 12:20:01;;;;;;;1.50;1.23;;;;;;;;;;5055858;28;20068;-71
2021/06/02 12:22:27;;;;;;;3.60;1.50;;;;;;;;;;5037911;28;20033;-71
2021/06/02 12:25:06;;;;;;;1.40;1.30;;;;;;;;;;5056127;28;20492;-71
2021/06/02 12:27:43;;;;;;;1.48;1.08;;;;;;;;;;5056173;28;20451;-71
2021/06/02 12:30:11;;;;;;;1.00;1.00;;;;;;;;;;5037925;28;20024;-71
2021/06/02 12:32:53;;;;;;;1.92;1.20;;;;;;;;;;5056179;28;20028;-70
2021/06/02 12:35:37;;;;;;;5.95;1.63;;;;;;;;;;5055951;28;20060;-71
2021/06/02 12:38:13;;;;;;;1.13;1.10;;;;;;;;;;5055929;28;20028;-70
2021/06/02 12:40:41;;;;;;;3.70;1.25;;;;;;;;;;5055952;28;20032;-71
2021/06/02 12:43:11;;;;;;;1.10;1.00;;;;;;;;;;5055742;28;20028;-71
2021/06/02 12:45:37;;;;;;;1.83;1.13;;;;;;;;;;5055848;28;20025;-71
2021/06/02 12:48:04;;;;;;;4.97;1.50;;;;;;;;;;5055799;28;20025;-70
2021/06/02 12:50:34;;;;;;;4.03;1.30;;;;;;;;;;5055635;28;20067;-71
2021/06/02 12:53:00;;;;;;;2.53;1.70;;;;;;;;;;5037862;28;20025;-72
2021/06/02 12:55:26;;;;;;;3.70;1.52;;;;;;;;;;5055556;28;20033;-71
2021/06/02 12:58:03;;;;;;;2.50;1.40;;;;;;;;;;5055624;28;20059;-71
2021/06/02 13:00:29;;;;;;;2.28;1.45;;;;;;;;;;5055610;28;20025;-71
2021/06/02 13:02:58;;;;;;;3.42;1.20;;;;;;;;;;5055409;28;20025;-70
2021/06/02 13:05:25;;;;;;;2.13;1.10;;;;;;;;;;5055764;28;20369;-71
2021/06/02 13:07:51;;;;;;;3.45;1.30;;;;;;;;;;5055423;28;20090;-71
2021/06/02 13:10:18;;;;;;;1.20;1.20;;;;;;;;;;5055444;28;20028;-71
2021/06/02 13:12:52;;;;;;;2.38;1.20;;;;;;;;;;5037534;28;20022;-72
2021/06/02 13:15:25;;;;;;;1.25;1.17;;;;;;;;;;5055331;28;20052;-71
2021/06/02 13:17:51;;;;;;;1.73;1.40;;;;;;;;;;5055252;28;20486;-71
2021/06/02 13:20:29;;;;;;;2.85;1.20;;;;;;;;;;5054265;28;20025;-69
2021/06/02 13:23:14;;;;;;;1.35;1.33;;;;;;;;;;5037054;28;20013;-71
2021/06/02 13:25:41;;;;;;;3.42;1.25;;;;;;;;;;5055115;28;20045;-73
2021/06/02 13:28:07;;;;;;;1.25;1.15;;;;;;;;;;5055021;28;20045;-72
2021/06/02 13:30:37;;;;;;;2.28;1.60;;;;;;;;;;5054980;28;20060;-70
2021/06/02 13:33:04;;;;;;;1.40;1.30;;;;;;;;;;5054988;28;20021;-70
2021/06/02 13:35:30;;;;;;;3.50;1.30;;;;;;;;;;5054615;28;20048;-70
2021/06/02 13:37:56;;;;;;;0.98;0.98;;;;;;;;;;5054265;28;20443;-70
2021/06/02 13:40:28;;;;;;;3.25;1.30;;;;;;;;;;5054856;28;20021;-70
2021/06/02 13:43:04;;;;;;;1.10;1.10;;;;;;;;;;5054831;28;20568;-71
2021/06/02 13:45:36;;;;;;;1.80;1.30;;;;;;;;;;5054748;28;20523;-70
2021/06/02 13:48:30;;;;;;;1.17;1.17;;;41.10;30.60;;;;;;5054907;28;20108;-70
2021/06/02 13:51:19;;;;;;;2.95;1.20;;;41.20;32.10;;;;;;5042544;28;20103;-71
2021/06/02 13:54:14;;;;;;;1.33;1.23;;;42.10;32.40;;;;;;5054616;28;20425;-70
2021/06/02 13:56:49;;;;;;;2.08;1.17;;;42.20;31.90;;;;;;5054397;28;20359;-72
2021/06/02 13:59:31;;;;;;;8.30;1.95;;;42.10;30.80;;;;;;5054462;28;20040;-71
2021/06/02 14:02:08;;;;;;;1.83;1.73;;;43.20;46.60;;;;;;5054443;28;20027;-72
2021/06/02 14:04:35;;;;;;;1.50;1.40;;;42.10;29.80;;;;;;5054415;28;20025;-71
2021/06/02 14:07:03;;;;;;;3.35;1.20;;;;;;;;;;5035463;28;20029;-71
2021/06/02 14:09:29;;;;;;;1.52;1.42;;;;;;;;;;5034114;28;20107;-71
2021/06/02 14:11:55;;;;;;;1.55;1.40;;;39.00;73.70;;;;;;5054058;28;20025;-71
2021/06/02 14:14:21;;;;;;;1.75;1.10;;;40.50;65.70;;;;;;5054186;28;20448;-72
2021/06/02 14:16:47;;;;;;;2.63;1.10;;;39.40;33.80;;;;;;5054060;28;20066;-71
2021/06/02 14:19:14;;;;;;;2.60;1.08;;;;;;;;;;5053784;28;20056;-69
2021/06/02 14:21:41;;;;;;;1.55;1.38;;;38.80;30.10;;;;;;5054077;28;20023;-70
2021/06/02 14:24:09;;;;;;;1.48;1.33;;;37.70;30.20;;;;;;5053680;28;20090;-68
2021/06/02 14:26:36;;;;;;;1.25;1.25;;;37.90;29.70;;;;;;5036059;28;20039;-72
2021/06/02 14:29:06;;;;;;;1.92;1.05;;;37.90;30.00;;;;;;5053933;28;20029;-71
2021/06/02 14:31:32;;;;;;;2.22;1.38;;;39.60;53.90;;;;;;5053694;28;20029;-72
2021/06/02 14:33:59;;;;;;;1.30;1.20;;;40.60;29.80;;;;;;5035250;28;20029;-69
2021/06/02 14:36:25;;;;;;;2.08;1.35;;;40.20;29.70;;;;;;5053707;28;20086;-68